Terminal Aerodrome Forecast
Issued by NWS Cleveland, OH

Home | Current Version | Previous Version | Text Only | Print | Product List | Glossary On
Versions: 1 2 3 4 5 6 7 8 9 10 11 12 13 14 15 16 17 18 19 20
000
FTUS41 KCLE 302300
TAFTOL
TAF
KTOL 302340Z 0100/0124 01004KT P6SM OVC030
      TEMPO 0104/0106 4SM BR BKN018
     FM010600 01004KT 3SM BR SCT004
     FM010900 01002KT 1/2SM FG VV003
     FM011400 05003KT 4SM BR OVC012
     FM011600 07004KT P6SM BKN022=

USA.gov is the U.S. government's official web portal to all federal, state and local government web resources and services.